sensor_id;sensor_type;location;lat;lon;timestamp;P1;durP1;ratioP1;P2;durP2;ratioP2
11151;SDS011;5630;49.342;10.802;2023-04-25T00:01:40;6.20;;;4.23;;
11151;SDS011;5630;49.342;10.802;2023-04-25T00:04:06;4.80;;;4.33;;
11151;SDS011;5630;49.342;10.802;2023-04-25T00:06:33;6.47;;;4.50;;
11151;SDS011;5630;49.342;10.802;2023-04-25T00:09:01;7.77;;;4.70;;
11151;SDS011;5630;49.342;10.802;2023-04-25T00:11:28;5.73;;;4.27;;
11151;SDS011;5630;49.342;10.802;2023-04-25T00:13:55;5.77;;;4.70;;
11151;SDS011;5630;49.342;10.802;2023-04-25T00:16:20;4.30;;;3.90;;
11151;SDS011;5630;49.342;10.802;2023-04-25T00:18:46;5.43;;;4.43;;
11151;SDS011;5630;49.342;10.802;2023-04-25T00:21:16;5.43;;;4.23;;
11151;SDS011;5630;49.342;10.802;2023-04-25T00:23:45;4.37;;;3.93;;
11151;SDS011;5630;49.342;10.802;2023-04-25T00:26:11;5.17;;;4.53;;
11151;SDS011;5630;49.342;10.802;2023-04-25T00:28:38;5.37;;;4.27;;
11151;SDS011;5630;49.342;10.802;2023-04-25T00:31:04;4.70;;;4.20;;
11151;SDS011;5630;49.342;10.802;2023-04-25T00:33:30;5.10;;;4.60;;
11151;SDS011;5630;49.342;10.802;2023-04-25T00:35:55;5.47;;;4.30;;
11151;SDS011;5630;49.342;10.802;2023-04-25T00:38:21;5.20;;;4.30;;
11151;SDS011;5630;49.342;10.802;2023-04-25T00:40:47;5.40;;;4.40;;
11151;SDS011;5630;49.342;10.802;2023-04-25T00:43:12;5.90;;;4.30;;
11151;SDS011;5630;49.342;10.802;2023-04-25T00:45:38;4.40;;;4.00;;
11151;SDS011;5630;49.342;10.802;2023-04-25T00:48:04;4.80;;;4.30;;
11151;SDS011;5630;49.342;10.802;2023-04-25T00:50:30;4.60;;;4.10;;
11151;SDS011;5630;49.342;10.802;2023-04-25T00:52:58;4.63;;;4.17;;
11151;SDS011;5630;49.342;10.802;2023-04-25T00:55:24;5.67;;;4.10;;
11151;SDS011;5630;49.342;10.802;2023-04-25T00:57:50;4.57;;;4.10;;
11151;SDS011;5630;49.342;10.802;2023-04-25T01:00:15;5.43;;;4.27;;
11151;SDS011;5630;49.342;10.802;2023-04-25T01:02:42;6.70;;;4.63;;
11151;SDS011;5630;49.342;10.802;2023-04-25T01:05:09;4.67;;;4.27;;
11151;SDS011;5630;49.342;10.802;2023-04-25T01:07:36;5.50;;;4.43;;
11151;SDS011;5630;49.342;10.802;2023-04-25T01:10:02;6.03;;;4.77;;
11151;SDS011;5630;49.342;10.802;2023-04-25T01:12:29;4.90;;;4.27;;
11151;SDS011;5630;49.342;10.802;2023-04-25T01:14:55;5.77;;;4.20;;
11151;SDS011;5630;49.342;10.802;2023-04-25T01:17:21;6.03;;;5.10;;
11151;SDS011;5630;49.342;10.802;2023-04-25T01:19:47;4.77;;;4.23;;
11151;SDS011;5630;49.342;10.802;2023-04-25T01:22:14;4.87;;;4.40;;
11151;SDS011;5630;49.342;10.802;2023-04-25T01:24:40;6.80;;;4.60;;
11151;SDS011;5630;49.342;10.802;2023-04-25T01:27:06;5.03;;;4.40;;
11151;SDS011;5630;49.342;10.802;2023-04-25T01:29:32;6.57;;;5.27;;
11151;SDS011;5630;49.342;10.802;2023-04-25T01:31:59;4.87;;;4.40;;
11151;SDS011;5630;49.342;10.802;2023-04-25T01:34:26;5.80;;;5.20;;
11151;SDS011;5630;49.342;10.802;2023-04-25T01:36:51;5.70;;;5.10;;
11151;SDS011;5630;49.342;10.802;2023-04-25T01:39:18;5.97;;;5.37;;
11151;SDS011;5630;49.342;10.802;2023-04-25T01:41:48;6.00;;;5.50;;
11151;SDS011;5630;49.342;10.802;2023-04-25T01:44:14;7.70;;;5.50;;
11151;SDS011;5630;49.342;10.802;2023-04-25T01:46:40;6.33;;;5.70;;
11151;SDS011;5630;49.342;10.802;2023-04-25T01:49:06;6.63;;;5.97;;
11151;SDS011;5630;49.342;10.802;2023-04-25T01:51:32;6.97;;;6.10;;
11151;SDS011;5630;49.342;10.802;2023-04-25T01:53:58;7.37;;;6.67;;
11151;SDS011;5630;49.342;10.802;2023-04-25T01:56:23;7.53;;;6.80;;
11151;SDS011;5630;49.342;10.802;2023-04-25T01:58:49;7.93;;;6.70;;
11151;SDS011;5630;49.342;10.802;2023-04-25T02:01:16;7.23;;;6.17;;
11151;SDS011;5630;49.342;10.802;2023-04-25T02:03:42;6.53;;;5.90;;
11151;SDS011;5630;49.342;10.802;2023-04-25T02:06:08;7.17;;;6.17;;
11151;SDS011;5630;49.342;10.802;2023-04-25T02:08:34;6.50;;;5.80;;
11151;SDS011;5630;49.342;10.802;2023-04-25T02:11:00;7.47;;;6.67;;
11151;SDS011;5630;49.342;10.802;2023-04-25T02:13:25;6.93;;;6.33;;
11151;SDS011;5630;49.342;10.802;2023-04-25T02:15:51;8.67;;;6.33;;
11151;SDS011;5630;49.342;10.802;2023-04-25T02:18:16;8.00;;;6.50;;
11151;SDS011;5630;49.342;10.802;2023-04-25T02:20:42;7.97;;;6.23;;
11151;SDS011;5630;49.342;10.802;2023-04-25T02:23:09;7.47;;;6.73;;
11151;SDS011;5630;49.342;10.802;2023-04-25T02:25:34;11.10;;;6.13;;
11151;SDS011;5630;49.342;10.802;2023-04-25T02:28:00;7.10;;;6.40;;
11151;SDS011;5630;49.342;10.802;2023-04-25T02:30:25;7.77;;;6.87;;
11151;SDS011;5630;49.342;10.802;2023-04-25T02:32:51;7.30;;;6.37;;
11151;SDS011;5630;49.342;10.802;2023-04-25T02:35:17;8.47;;;7.30;;
11151;SDS011;5630;49.342;10.802;2023-04-25T02:37:42;7.77;;;7.07;;
11151;SDS011;5630;49.342;10.802;2023-04-25T02:40:08;8.73;;;6.80;;
11151;SDS011;5630;49.342;10.802;2023-04-25T02:42:34;7.23;;;6.33;;
11151;SDS011;5630;49.342;10.802;2023-04-25T02:45:00;7.80;;;6.40;;
11151;SDS011;5630;49.342;10.802;2023-04-25T02:47:26;7.00;;;6.40;;
11151;SDS011;5630;49.342;10.802;2023-04-25T02:49:51;7.03;;;6.33;;
11151;SDS011;5630;49.342;10.802;2023-04-25T02:52:17;9.97;;;7.17;;
11151;SDS011;5630;49.342;10.802;2023-04-25T02:54:43;6.80;;;6.10;;
11151;SDS011;5630;49.342;10.802;2023-04-25T02:57:08;7.13;;;6.40;;
11151;SDS011;5630;49.342;10.802;2023-04-25T02:59:34;8.40;;;6.07;;
11151;SDS011;5630;49.342;10.802;2023-04-25T03:02:00;7.73;;;6.50;;
11151;SDS011;5630;49.342;10.802;2023-04-25T03:04:26;7.70;;;6.20;;
11151;SDS011;5630;49.342;10.802;2023-04-25T03:06:52;8.17;;;6.60;;
11151;SDS011;5630;49.342;10.802;2023-04-25T03:09:18;7.10;;;6.40;;
11151;SDS011;5630;49.342;10.802;2023-04-25T03:11:44;8.63;;;6.60;;
11151;SDS011;5630;49.342;10.802;2023-04-25T03:14:10;8.37;;;6.80;;
11151;SDS011;5630;49.342;10.802;2023-04-25T03:16:36;7.40;;;6.63;;
11151;SDS011;5630;49.342;10.802;2023-04-25T03:19:02;8.57;;;6.33;;
11151;SDS011;5630;49.342;10.802;2023-04-25T03:21:29;6.67;;;6.00;;
11151;SDS011;5630;49.342;10.802;2023-04-25T03:23:56;8.40;;;6.60;;
11151;SDS011;5630;49.342;10.802;2023-04-25T03:26:22;6.40;;;5.80;;
11151;SDS011;5630;49.342;10.802;2023-04-25T03:28:48;6.90;;;6.20;;
11151;SDS011;5630;49.342;10.802;2023-04-25T03:31:13;7.90;;;6.47;;
11151;SDS011;5630;49.342;10.802;2023-04-25T03:33:39;8.27;;;6.70;;
11151;SDS011;5630;49.342;10.802;2023-04-25T03:36:05;6.43;;;5.83;;
11151;SDS011;5630;49.342;10.802;2023-04-25T03:38:31;7.47;;;6.20;;
11151;SDS011;5630;49.342;10.802;2023-04-25T03:40:56;8.47;;;6.53;;
11151;SDS011;5630;49.342;10.802;2023-04-25T03:43:22;6.40;;;5.70;;
11151;SDS011;5630;49.342;10.802;2023-04-25T03:45:48;6.83;;;5.90;;
11151;SDS011;5630;49.342;10.802;2023-04-25T03:48:13;7.33;;;5.83;;
11151;SDS011;5630;49.342;10.802;2023-04-25T03:50:39;9.83;;;6.17;;
11151;SDS011;5630;49.342;10.802;2023-04-25T03:53:05;8.73;;;6.20;;
11151;SDS011;5630;49.342;10.802;2023-04-25T03:55:30;7.07;;;5.77;;
11151;SDS011;5630;49.342;10.802;2023-04-25T03:57:57;7.53;;;6.07;;
11151;SDS011;5630;49.342;10.802;2023-04-25T04:00:23;6.87;;;5.90;;
11151;SDS011;5630;49.342;10.802;2023-04-25T04:02:49;7.07;;;5.87;;
11151;SDS011;5630;49.342;10.802;2023-04-25T04:05:15;8.50;;;6.27;;
11151;SDS011;5630;49.342;10.802;2023-04-25T04:07:40;7.23;;;6.53;;
11151;SDS011;5630;49.342;10.802;2023-04-25T04:10:07;7.63;;;6.30;;
11151;SDS011;5630;49.342;10.802;2023-04-25T04:12:36;8.00;;;6.30;;
11151;SDS011;5630;49.342;10.802;2023-04-25T04:15:03;7.63;;;6.20;;
11151;SDS011;5630;49.342;10.802;2023-04-25T04:17:29;10.50;;;6.30;;
11151;SDS011;5630;49.342;10.802;2023-04-25T04:19:55;7.90;;;6.27;;
11151;SDS011;5630;49.342;10.802;2023-04-25T04:22:21;7.73;;;6.27;;
11151;SDS011;5630;49.342;10.802;2023-04-25T04:24:48;7.20;;;6.10;;
11151;SDS011;5630;49.342;10.802;2023-04-25T04:27:14;7.60;;;6.60;;
11151;SDS011;5630;49.342;10.802;2023-04-25T04:29:44;8.00;;;6.37;;
11151;SDS011;5630;49.342;10.802;2023-04-25T04:32:10;7.13;;;6.53;;
11151;SDS011;5630;49.342;10.802;2023-04-25T04:34:36;8.87;;;7.00;;
11151;SDS011;5630;49.342;10.802;2023-04-25T04:37:02;7.33;;;6.63;;
11151;SDS011;5630;49.342;10.802;2023-04-25T04:39:28;8.37;;;7.27;;
11151;SDS011;5630;49.342;10.802;2023-04-25T04:41:53;7.83;;;7.03;;
11151;SDS011;5630;49.342;10.802;2023-04-25T04:44:19;8.17;;;7.13;;
11151;SDS011;5630;49.342;10.802;2023-04-25T04:46:44;9.33;;;7.27;;
11151;SDS011;5630;49.342;10.802;2023-04-25T04:49:11;8.80;;;7.70;;
11151;SDS011;5630;49.342;10.802;2023-04-25T04:51:38;7.73;;;6.70;;
11151;SDS011;5630;49.342;10.802;2023-04-25T04:54:05;9.03;;;7.70;;
11151;SDS011;5630;49.342;10.802;2023-04-25T04:56:31;7.57;;;6.70;;
11151;SDS011;5630;49.342;10.802;2023-04-25T04:58:57;8.07;;;7.27;;
11151;SDS011;5630;49.342;10.802;2023-04-25T05:01:23;8.60;;;7.80;;
11151;SDS011;5630;49.342;10.802;2023-04-25T05:03:49;7.80;;;6.93;;
11151;SDS011;5630;49.342;10.802;2023-04-25T05:06:16;7.87;;;7.07;;
11151;SDS011;5630;49.342;10.802;2023-04-25T05:08:42;8.27;;;7.47;;
11151;SDS011;5630;49.342;10.802;2023-04-25T05:11:07;8.47;;;7.50;;
11151;SDS011;5630;49.342;10.802;2023-04-25T05:13:33;8.50;;;7.30;;
11151;SDS011;5630;49.342;10.802;2023-04-25T05:15:58;7.83;;;7.10;;
11151;SDS011;5630;49.342;10.802;2023-04-25T05:18:24;10.30;;;7.77;;
11151;SDS011;5630;49.342;10.802;2023-04-25T05:20:49;9.50;;;8.37;;
11151;SDS011;5630;49.342;10.802;2023-04-25T05:23:15;8.43;;;7.50;;
11151;SDS011;5630;49.342;10.802;2023-04-25T05:25:41;7.87;;;6.80;;
11151;SDS011;5630;49.342;10.802;2023-04-25T05:28:06;8.67;;;7.77;;
11151;SDS011;5630;49.342;10.802;2023-04-25T05:30:33;9.13;;;7.37;;
11151;SDS011;5630;49.342;10.802;2023-04-25T05:32:59;9.80;;;7.80;;
11151;SDS011;5630;49.342;10.802;2023-04-25T05:35:25;8.03;;;7.23;;
11151;SDS011;5630;49.342;10.802;2023-04-25T05:37:51;7.77;;;6.97;;
11151;SDS011;5630;49.342;10.802;2023-04-25T05:40:16;8.60;;;7.47;;
11151;SDS011;5630;49.342;10.802;2023-04-25T05:42:42;6.00;;;5.40;;
11151;SDS011;5630;49.342;10.802;2023-04-25T05:45:08;5.50;;;5.03;;
11151;SDS011;5630;49.342;10.802;2023-04-25T05:47:33;4.87;;;4.37;;
11151;SDS011;5630;49.342;10.802;2023-04-25T05:49:59;6.60;;;5.67;;
11151;SDS011;5630;49.342;10.802;2023-04-25T05:52:25;6.07;;;5.10;;
11151;SDS011;5630;49.342;10.802;2023-04-25T05:54:50;4.23;;;3.83;;
11151;SDS011;5630;49.342;10.802;2023-04-25T05:57:22;6.73;;;5.90;;
11151;SDS011;5630;49.342;10.802;2023-04-25T05:59:49;5.07;;;4.40;;
11151;SDS011;5630;49.342;10.802;2023-04-25T06:02:15;5.30;;;4.40;;
11151;SDS011;5630;49.342;10.802;2023-04-25T06:04:41;5.17;;;4.10;;
11151;SDS011;5630;49.342;10.802;2023-04-25T06:07:06;6.73;;;6.13;;
11151;SDS011;5630;49.342;10.802;2023-04-25T06:09:32;6.23;;;5.63;;
11151;SDS011;5630;49.342;10.802;2023-04-25T06:11:57;6.30;;;4.27;;
11151;SDS011;5630;49.342;10.802;2023-04-25T06:14:23;6.57;;;5.97;;
11151;SDS011;5630;49.342;10.802;2023-04-25T06:16:48;5.00;;;4.50;;
11151;SDS011;5630;49.342;10.802;2023-04-25T06:19:14;4.90;;;3.70;;
11151;SDS011;5630;49.342;10.802;2023-04-25T06:21:41;8.47;;;6.30;;
11151;SDS011;5630;49.342;10.802;2023-04-25T06:24:08;6.90;;;6.20;;
11151;SDS011;5630;49.342;10.802;2023-04-25T06:26:34;7.20;;;6.50;;
11151;SDS011;5630;49.342;10.802;2023-04-25T06:28:59;7.77;;;5.80;;
11151;SDS011;5630;49.342;10.802;2023-04-25T06:31:25;9.13;;;7.20;;
11151;SDS011;5630;49.342;10.802;2023-04-25T06:33:50;8.00;;;7.17;;
11151;SDS011;5630;49.342;10.802;2023-04-25T06:36:19;8.53;;;7.67;;
11151;SDS011;5630;49.342;10.802;2023-04-25T06:38:53;8.70;;;7.80;;
11151;SDS011;5630;49.342;10.802;2023-04-25T06:41:19;18.13;;;14.73;;
11151;SDS011;5630;49.342;10.802;2023-04-25T06:43:45;13.40;;;10.20;;
11151;SDS011;5630;49.342;10.802;2023-04-25T06:46:11;10.90;;;8.40;;
11151;SDS011;5630;49.342;10.802;2023-04-25T06:48:36;9.77;;;8.83;;
11151;SDS011;5630;49.342;10.802;2023-04-25T06:51:02;12.37;;;10.90;;
11151;SDS011;5630;49.342;10.802;2023-04-25T06:53:28;12.50;;;10.33;;
11151;SDS011;5630;49.342;10.802;2023-04-25T06:55:53;10.60;;;9.60;;
11151;SDS011;5630;49.342;10.802;2023-04-25T06:58:19;10.80;;;9.47;;
11151;SDS011;5630;49.342;10.802;2023-04-25T07:00:45;10.40;;;9.30;;
11151;SDS011;5630;49.342;10.802;2023-04-25T07:03:10;11.83;;;10.17;;
11151;SDS011;5630;49.342;10.802;2023-04-25T07:05:36;11.63;;;10.40;;
11151;SDS011;5630;49.342;10.802;2023-04-25T07:08:02;10.77;;;9.77;;
11151;SDS011;5630;49.342;10.802;2023-04-25T07:10:28;10.47;;;9.17;;
11151;SDS011;5630;49.342;10.802;2023-04-25T07:12:53;8.37;;;7.57;;
11151;SDS011;5630;49.342;10.802;2023-04-25T07:15:19;10.07;;;7.67;;
11151;SDS011;5630;49.342;10.802;2023-04-25T07:17:45;9.97;;;7.73;;
11151;SDS011;5630;49.342;10.802;2023-04-25T07:20:11;7.50;;;6.80;;
11151;SDS011;5630;49.342;10.802;2023-04-25T07:22:36;8.50;;;6.33;;
11151;SDS011;5630;49.342;10.802;2023-04-25T07:25:02;8.77;;;7.00;;
11151;SDS011;5630;49.342;10.802;2023-04-25T07:27:29;7.83;;;7.03;;
11151;SDS011;5630;49.342;10.802;2023-04-25T07:29:55;8.00;;;7.20;;
11151;SDS011;5630;49.342;10.802;2023-04-25T07:32:21;9.03;;;8.13;;
11151;SDS011;5630;49.342;10.802;2023-04-25T07:34:47;8.47;;;7.53;;
11151;SDS011;5630;49.342;10.802;2023-04-25T07:37:12;10.23;;;8.10;;
11151;SDS011;5630;49.342;10.802;2023-04-25T07:39:39;9.90;;;7.90;;
11151;SDS011;5630;49.342;10.802;2023-04-25T07:42:05;8.77;;;6.90;;
11151;SDS011;5630;49.342;10.802;2023-04-25T07:44:33;8.63;;;7.83;;
11151;SDS011;5630;49.342;10.802;2023-04-25T07:47:04;8.77;;;6.90;;
11151;SDS011;5630;49.342;10.802;2023-04-25T07:49:32;12.23;;;7.50;;
11151;SDS011;5630;49.342;10.802;2023-04-25T07:51:58;7.47;;;6.67;;
11151;SDS011;5630;49.342;10.802;2023-04-25T07:54:24;7.80;;;7.00;;
11151;SDS011;5630;49.342;10.802;2023-04-25T07:56:50;9.00;;;7.17;;
11151;SDS011;5630;49.342;10.802;2023-04-25T07:59:15;8.20;;;6.37;;
11151;SDS011;5630;49.342;10.802;2023-04-25T08:01:41;10.33;;;6.87;;
11151;SDS011;5630;49.342;10.802;2023-04-25T08:04:07;6.47;;;5.87;;
11151;SDS011;5630;49.342;10.802;2023-04-25T08:06:32;7.97;;;6.10;;
11151;SDS011;5630;49.342;10.802;2023-04-25T08:08:58;7.17;;;6.47;;
11151;SDS011;5630;49.342;10.802;2023-04-25T08:11:23;6.37;;;5.77;;
11151;SDS011;5630;49.342;10.802;2023-04-25T08:13:50;6.67;;;5.97;;
11151;SDS011;5630;49.342;10.802;2023-04-25T08:16:15;7.33;;;6.40;;
11151;SDS011;5630;49.342;10.802;2023-04-25T08:18:41;8.33;;;6.00;;
11151;SDS011;5630;49.342;10.802;2023-04-25T08:21:07;7.73;;;6.87;;
11151;SDS011;5630;49.342;10.802;2023-04-25T08:23:33;7.83;;;6.00;;
11151;SDS011;5630;49.342;10.802;2023-04-25T08:25:59;6.57;;;5.77;;
11151;SDS011;5630;49.342;10.802;2023-04-25T08:28:25;7.23;;;5.63;;
11151;SDS011;5630;49.342;10.802;2023-04-25T08:30:50;9.20;;;5.80;;
11151;SDS011;5630;49.342;10.802;2023-04-25T08:33:16;8.23;;;6.27;;
11151;SDS011;5630;49.342;10.802;2023-04-25T08:35:42;8.67;;;6.23;;
11151;SDS011;5630;49.342;10.802;2023-04-25T08:38:09;10.53;;;6.07;;
11151;SDS011;5630;49.342;10.802;2023-04-25T08:40:35;8.70;;;6.20;;
11151;SDS011;5630;49.342;10.802;2023-04-25T08:43:03;6.77;;;6.07;;
11151;SDS011;5630;49.342;10.802;2023-04-25T08:45:34;7.80;;;6.40;;
11151;SDS011;5630;49.342;10.802;2023-04-25T08:48:00;7.93;;;6.67;;
11151;SDS011;5630;49.342;10.802;2023-04-25T08:50:27;8.00;;;7.30;;
11151;SDS011;5630;49.342;10.802;2023-04-25T08:52:54;8.13;;;6.80;;
11151;SDS011;5630;49.342;10.802;2023-04-25T08:55:22;8.17;;;6.53;;
11151;SDS011;5630;49.342;10.802;2023-04-25T08:57:48;6.83;;;6.13;;
11151;SDS011;5630;49.342;10.802;2023-04-25T09:00:15;8.73;;;6.33;;
11151;SDS011;5630;49.342;10.802;2023-04-25T09:02:42;9.70;;;5.60;;
11151;SDS011;5630;49.342;10.802;2023-04-25T09:05:08;7.40;;;5.40;;
11151;SDS011;5630;49.342;10.802;2023-04-25T09:07:37;8.67;;;6.17;;
11151;SDS011;5630;49.342;10.802;2023-04-25T09:10:02;6.67;;;5.93;;
11151;SDS011;5630;49.342;10.802;2023-04-25T09:12:28;8.73;;;5.47;;
11151;SDS011;5630;49.342;10.802;2023-04-25T09:15:28;6.40;;;5.57;;
11151;SDS011;5630;49.342;10.802;2023-04-25T09:17:54;7.63;;;5.57;;
11151;SDS011;5630;49.342;10.802;2023-04-25T09:20:24;6.87;;;6.00;;
11151;SDS011;5630;49.342;10.802;2023-04-25T09:23:00;6.40;;;4.60;;
11151;SDS011;5630;49.342;10.802;2023-04-25T09:25:34;8.43;;;4.43;;
11151;SDS011;5630;49.342;10.802;2023-04-25T09:28:04;7.90;;;4.80;;
11151;SDS011;5630;49.342;10.802;2023-04-25T09:30:32;5.77;;;3.77;;
11151;SDS011;5630;49.342;10.802;2023-04-25T09:33:04;7.97;;;5.17;;
11151;SDS011;5630;49.342;10.802;2023-04-25T09:35:35;6.53;;;4.87;;
11151;SDS011;5630;49.342;10.802;2023-04-25T09:38:20;8.20;;;5.33;;
11151;SDS011;5630;49.342;10.802;2023-04-25T09:40:46;5.83;;;5.20;;
11151;SDS011;5630;49.342;10.802;2023-04-25T09:43:20;6.03;;;4.40;;
11151;SDS011;5630;49.342;10.802;2023-04-25T09:45:47;4.90;;;3.80;;
11151;SDS011;5630;49.342;10.802;2023-04-25T09:48:17;4.53;;;3.87;;
11151;SDS011;5630;49.342;10.802;2023-04-25T09:50:44;7.10;;;3.87;;
11151;SDS011;5630;49.342;10.802;2023-04-25T09:53:10;4.47;;;3.23;;
11151;SDS011;5630;49.342;10.802;2023-04-25T09:55:36;5.67;;;3.60;;
11151;SDS011;5630;49.342;10.802;2023-04-25T09:58:05;7.13;;;3.60;;
11151;SDS011;5630;49.342;10.802;2023-04-25T10:00:32;6.27;;;3.67;;
11151;SDS011;5630;49.342;10.802;2023-04-25T10:03:02;6.83;;;4.00;;
11151;SDS011;5630;49.342;10.802;2023-04-25T10:05:30;5.80;;;4.17;;
11151;SDS011;5630;49.342;10.802;2023-04-25T10:08:01;7.67;;;4.73;;
11151;SDS011;5630;49.342;10.802;2023-04-25T10:10:28;7.57;;;4.37;;
11151;SDS011;5630;49.342;10.802;2023-04-25T10:12:57;6.30;;;4.50;;
11151;SDS011;5630;49.342;10.802;2023-04-25T10:15:24;6.00;;;4.67;;
11151;SDS011;5630;49.342;10.802;2023-04-25T10:17:50;8.77;;;4.97;;
11151;SDS011;5630;49.342;10.802;2023-04-25T10:20:16;7.63;;;5.50;;
11151;SDS011;5630;49.342;10.802;2023-04-25T10:22:42;7.73;;;4.70;;
11151;SDS011;5630;49.342;10.802;2023-04-25T10:25:10;6.77;;;4.30;;
11151;SDS011;5630;49.342;10.802;2023-04-25T10:27:36;5.10;;;4.40;;
11151;SDS011;5630;49.342;10.802;2023-04-25T10:30:08;5.63;;;4.33;;
11151;SDS011;5630;49.342;10.802;2023-04-25T10:32:37;6.90;;;3.93;;
11151;SDS011;5630;49.342;10.802;2023-04-25T10:35:16;6.53;;;4.10;;
11151;SDS011;5630;49.342;10.802;2023-04-25T10:40:34;4.40;;;2.97;;
11151;SDS011;5630;49.342;10.802;2023-04-25T10:45:56;4.83;;;3.00;;
11151;SDS011;5630;49.342;10.802;2023-04-25T10:48:25;2.80;;;2.53;;
11151;SDS011;5630;49.342;10.802;2023-04-25T10:51:06;4.27;;;3.17;;
11151;SDS011;5630;49.342;10.802;2023-04-25T10:53:35;4.67;;;2.73;;
11151;SDS011;5630;49.342;10.802;2023-04-25T10:56:00;5.23;;;2.97;;
11151;SDS011;5630;49.342;10.802;2023-04-25T10:58:42;5.40;;;3.10;;
11151;SDS011;5630;49.342;10.802;2023-04-25T11:01:09;4.17;;;2.70;;
11151;SDS011;5630;49.342;10.802;2023-04-25T11:03:41;7.70;;;3.20;;
11151;SDS011;5630;49.342;10.802;2023-04-25T11:06:14;5.73;;;3.47;;
11151;SDS011;5630;49.342;10.802;2023-04-25T11:08:48;10.80;;;3.20;;
11151;SDS011;5630;49.342;10.802;2023-04-25T11:11:16;6.27;;;2.77;;
11151;SDS011;5630;49.342;10.802;2023-04-25T11:13:42;5.47;;;3.00;;
11151;SDS011;5630;49.342;10.802;2023-04-25T11:16:08;7.03;;;3.77;;
11151;SDS011;5630;49.342;10.802;2023-04-25T11:18:34;6.10;;;3.60;;
11151;SDS011;5630;49.342;10.802;2023-04-25T11:21:00;5.20;;;3.83;;
11151;SDS011;5630;49.342;10.802;2023-04-25T11:23:27;8.30;;;3.97;;
11151;SDS011;5630;49.342;10.802;2023-04-25T11:25:53;7.60;;;3.33;;
11151;SDS011;5630;49.342;10.802;2023-04-25T11:28:22;4.47;;;3.10;;
11151;SDS011;5630;49.342;10.802;2023-04-25T11:30:48;4.77;;;3.17;;
11151;SDS011;5630;49.342;10.802;2023-04-25T11:33:15;6.90;;;2.90;;
11151;SDS011;5630;49.342;10.802;2023-04-25T11:35:41;6.93;;;2.70;;
11151;SDS011;5630;49.342;10.802;2023-04-25T11:38:07;3.73;;;2.50;;
11151;SDS011;5630;49.342;10.802;2023-04-25T11:40:32;2.70;;;2.40;;
11151;SDS011;5630;49.342;10.802;2023-04-25T11:42:59;6.73;;;3.00;;
11151;SDS011;5630;49.342;10.802;2023-04-25T11:45:26;3.97;;;2.63;;
11151;SDS011;5630;49.342;10.802;2023-04-25T11:47:52;2.93;;;2.50;;
11151;SDS011;5630;49.342;10.802;2023-04-25T11:50:17;5.20;;;3.00;;
11151;SDS011;5630;49.342;10.802;2023-04-25T11:52:46;4.90;;;2.77;;
11151;SDS011;5630;49.342;10.802;2023-04-25T11:55:14;8.17;;;3.30;;
11151;SDS011;5630;49.342;10.802;2023-04-25T11:57:41;3.57;;;2.60;;
11151;SDS011;5630;49.342;10.802;2023-04-25T12:02:35;4.73;;;2.67;;
11151;SDS011;5630;49.342;10.802;2023-04-25T12:05:01;4.53;;;2.93;;
11151;SDS011;5630;49.342;10.802;2023-04-25T12:07:31;3.50;;;2.57;;
11151;SDS011;5630;49.342;10.802;2023-04-25T12:09:56;5.10;;;2.67;;
11151;SDS011;5630;49.342;10.802;2023-04-25T12:12:26;3.67;;;2.73;;
11151;SDS011;5630;49.342;10.802;2023-04-25T12:14:53;5.70;;;2.80;;
11151;SDS011;5630;49.342;10.802;2023-04-25T12:17:20;3.30;;;2.47;;
11151;SDS011;5630;49.342;10.802;2023-04-25T12:19:47;3.83;;;2.40;;
11151;SDS011;5630;49.342;10.802;2023-04-25T12:22:22;3.90;;;2.57;;
11151;SDS011;5630;49.342;10.802;2023-04-25T12:24:49;4.47;;;2.60;;
11151;SDS011;5630;49.342;10.802;2023-04-25T12:27:15;4.27;;;2.47;;
11151;SDS011;5630;49.342;10.802;2023-04-25T12:29:49;4.47;;;2.67;;
11151;SDS011;5630;49.342;10.802;2023-04-25T12:32:16;3.23;;;2.50;;
11151;SDS011;5630;49.342;10.802;2023-04-25T12:34:42;4.83;;;2.60;;
11151;SDS011;5630;49.342;10.802;2023-04-25T12:37:08;3.23;;;2.40;;
11151;SDS011;5630;49.342;10.802;2023-04-25T12:39:34;2.80;;;2.30;;
11151;SDS011;5630;49.342;10.802;2023-04-25T12:42:00;3.10;;;2.70;;
11151;SDS011;5630;49.342;10.802;2023-04-25T12:44:26;3.57;;;2.53;;
11151;SDS011;5630;49.342;10.802;2023-04-25T12:46:52;4.23;;;2.40;;
11151;SDS011;5630;49.342;10.802;2023-04-25T12:49:17;5.10;;;2.63;;
11151;SDS011;5630;49.342;10.802;2023-04-25T12:51:43;3.70;;;2.87;;
11151;SDS011;5630;49.342;10.802;2023-04-25T12:54:09;4.30;;;2.40;;
11151;SDS011;5630;49.342;10.802;2023-04-25T12:56:35;3.67;;;2.43;;
11151;SDS011;5630;49.342;10.802;2023-04-25T12:59:01;3.07;;;2.30;;
11151;SDS011;5630;49.342;10.802;2023-04-25T13:01:30;3.20;;;2.87;;
11151;SDS011;5630;49.342;10.802;2023-04-25T13:03:55;5.03;;;2.87;;
11151;SDS011;5630;49.342;10.802;2023-04-25T13:06:21;3.73;;;2.67;;
11151;SDS011;5630;49.342;10.802;2023-04-25T13:08:47;7.20;;;3.30;;
11151;SDS011;5630;49.342;10.802;2023-04-25T13:11:13;4.37;;;3.20;;
11151;SDS011;5630;49.342;10.802;2023-04-25T13:13:39;4.73;;;3.57;;
11151;SDS011;5630;49.342;10.802;2023-04-25T13:16:06;4.33;;;3.30;;
11151;SDS011;5630;49.342;10.802;2023-04-25T13:18:32;4.53;;;3.23;;
11151;SDS011;5630;49.342;10.802;2023-04-25T13:20:58;5.13;;;3.50;;
11151;SDS011;5630;49.342;10.802;2023-04-25T13:23:26;8.07;;;3.40;;
11151;SDS011;5630;49.342;10.802;2023-04-25T13:25:52;4.40;;;2.80;;
11151;SDS011;5630;49.342;10.802;2023-04-25T13:28:19;7.33;;;3.70;;
11151;SDS011;5630;49.342;10.802;2023-04-25T13:30:46;9.00;;;3.20;;
11151;SDS011;5630;49.342;10.802;2023-04-25T13:33:13;5.50;;;2.97;;
11151;SDS011;5630;49.342;10.802;2023-04-25T13:35:39;3.20;;;2.90;;
11151;SDS011;5630;49.342;10.802;2023-04-25T13:38:05;5.70;;;3.20;;
11151;SDS011;5630;49.342;10.802;2023-04-25T13:40:30;4.17;;;3.20;;
11151;SDS011;5630;49.342;10.802;2023-04-25T13:42:57;4.83;;;3.50;;
11151;SDS011;5630;49.342;10.802;2023-04-25T13:45:22;4.53;;;3.17;;
11151;SDS011;5630;49.342;10.802;2023-04-25T13:47:48;5.37;;;3.20;;
11151;SDS011;5630;49.342;10.802;2023-04-25T13:50:14;5.50;;;3.57;;
11151;SDS011;5630;49.342;10.802;2023-04-25T13:52:40;7.77;;;3.30;;
11151;SDS011;5630;49.342;10.802;2023-04-25T13:55:07;3.67;;;3.20;;
11151;SDS011;5630;49.342;10.802;2023-04-25T13:57:33;4.47;;;3.50;;
11151;SDS011;5630;49.342;10.802;2023-04-25T13:59:59;5.07;;;3.37;;
11151;SDS011;5630;49.342;10.802;2023-04-25T14:02:31;4.10;;;3.47;;
11151;SDS011;5630;49.342;10.802;2023-04-25T14:04:56;4.93;;;3.57;;
11151;SDS011;5630;49.342;10.802;2023-04-25T14:07:22;3.10;;;2.80;;
11151;SDS011;5630;49.342;10.802;2023-04-25T14:09:47;5.90;;;2.73;;
11151;SDS011;5630;49.342;10.802;2023-04-25T14:12:13;3.57;;;3.00;;
11151;SDS011;5630;49.342;10.802;2023-04-25T14:14:39;7.23;;;3.07;;
11151;SDS011;5630;49.342;10.802;2023-04-25T14:17:04;5.13;;;3.10;;
11151;SDS011;5630;49.342;10.802;2023-04-25T14:19:31;4.03;;;3.20;;
11151;SDS011;5630;49.342;10.802;2023-04-25T14:21:56;4.87;;;2.93;;
11151;SDS011;5630;49.342;10.802;2023-04-25T14:24:22;5.33;;;3.30;;
11151;SDS011;5630;49.342;10.802;2023-04-25T14:26:48;6.57;;;3.10;;
11151;SDS011;5630;49.342;10.802;2023-04-25T14:29:13;5.97;;;3.50;;
11151;SDS011;5630;49.342;10.802;2023-04-25T14:31:39;4.43;;;3.10;;
11151;SDS011;5630;49.342;10.802;2023-04-25T14:34:05;4.87;;;3.60;;
11151;SDS011;5630;49.342;10.802;2023-04-25T14:36:32;7.30;;;3.63;;
11151;SDS011;5630;49.342;10.802;2023-04-25T14:38:58;5.47;;;3.53;;
11151;SDS011;5630;49.342;10.802;2023-04-25T14:41:25;5.40;;;3.53;;
11151;SDS011;5630;49.342;10.802;2023-04-25T14:43:51;5.03;;;3.50;;
11151;SDS011;5630;49.342;10.802;2023-04-25T14:46:17;5.67;;;3.97;;
11151;SDS011;5630;49.342;10.802;2023-04-25T14:48:47;4.67;;;3.50;;
11151;SDS011;5630;49.342;10.802;2023-04-25T14:51:13;5.80;;;4.13;;